Time;durP1;ratioP1;P1;durP2;ratioP2;P2;SDS_P1;SDS_P2;PMS_P1;PMS_P2;Temp;Humidity;BMP_temperature;BMP_pressure;BME280_temperature;BME280_humidity;BME280_pressure;Samples;Min_cycle;Max_cycle;Signal;HPM_P1;HPM_P2
2022/12/11 00:02:19;;;;;;;60.75;24.38;;;-0.40;99.90;;;;;;5092300;27;20455;-36
2022/12/11 00:04:45;;;;;;;61.33;24.80;;;-0.40;99.90;;;;;;5085833;27;20035;-35
2022/12/11 00:07:11;;;;;;;53.90;21.58;;;-0.40;99.90;;;;;;5093173;28;20040;-35
2022/12/11 00:09:37;;;;;;;61.42;24.15;;;-0.40;99.90;;;;;;5100483;28;20485;-35
2022/12/11 00:12:04;;;;;;;57.42;21.77;;;-0.40;99.90;;;;;;5090027;28;20040;-35
2022/12/11 00:14:30;;;;;;;57.90;22.50;;;-0.40;99.90;;;;;;5086830;28;20115;-36
2022/12/11 00:16:56;;;;;;;57.50;20.92;;;-0.30;99.90;;;;;;5099257;28;20036;-36
2022/12/11 00:19:22;;;;;;;62.80;22.52;;;-0.40;99.90;;;;;;5084034;28;20032;-36
2022/12/11 00:21:48;;;;;;;59.67;23.30;;;-0.40;99.90;;;;;;5093789;28;20396;-36
2022/12/11 00:24:13;;;;;;;56.72;22.85;;;-0.40;99.90;;;;;;5093715;28;20059;-36
2022/12/11 00:26:39;;;;;;;65.30;24.27;;;-0.30;99.90;;;;;;5095632;28;20065;-36
2022/12/11 00:29:07;;;;;;;58.53;23.40;;;-0.30;99.90;;;;;;5093878;28;20039;-36
2022/12/11 00:31:32;;;;;;;69.93;24.08;;;-0.30;99.90;;;;;;5092318;27;20119;-36
2022/12/11 00:34:00;;;;;;;59.80;22.75;;;-0.30;99.90;;;;;;5093335;28;20497;-36
2022/12/11 00:36:26;;;;;;;59.80;22.48;;;-0.30;99.90;;;;;;5088653;27;20123;-36
2022/12/11 00:38:52;;;;;;;60.15;22.67;;;-0.30;99.90;;;;;;5097582;27;20043;-36
2022/12/11 00:41:19;;;;;;;68.05;23.25;;;-0.30;99.90;;;;;;5092901;27;20036;-36
2022/12/11 00:43:45;;;;;;;61.28;21.63;;;-0.20;99.90;;;;;;5103262;27;20103;-36
2022/12/11 00:46:11;;;;;;;64.90;23.50;;;-0.30;99.90;;;;;;5091738;28;20039;-36
2022/12/11 00:48:37;;;;;;;57.40;22.55;;;-0.20;99.90;;;;;;5099007;27;20031;-36
2022/12/11 00:51:03;;;;;;;59.17;23.52;;;-0.20;99.90;;;;;;5082812;28;20043;-36
2022/12/11 00:53:29;;;;;;;80.10;25.38;;;-0.20;99.90;;;;;;5120380;27;20043;-35
2022/12/11 00:55:55;;;;;;;64.93;22.50;;;-0.20;99.90;;;;;;5075694;28;20040;-36
2022/12/11 00:58:22;;;;;;;63.17;22.70;;;-0.20;99.90;;;;;;5087948;28;20060;-35
2022/12/11 01:00:48;;;;;;;63.97;21.90;;;-0.10;99.90;;;;;;5095541;27;20035;-36
2022/12/11 01:03:15;;;;;;;58.53;22.38;;;-0.20;99.90;;;;;;5099695;27;20043;-36
2022/12/11 01:05:41;;;;;;;66.25;22.55;;;-0.10;99.90;;;;;;5075395;28;20042;-36
2022/12/11 01:08:07;;;;;;;60.45;21.60;;;-0.10;99.90;;;;;;5087180;28;20032;-36
2022/12/11 01:10:33;;;;;;;60.17;22.38;;;-0.10;99.90;;;;;;5091665;28;20039;-35
2022/12/11 01:13:04;;;;;;;63.83;22.33;;;-0.10;99.90;;;;;;5087963;28;20514;-36
2022/12/11 01:15:38;;;;;;;56.90;21.45;;;-0.10;99.90;;;;;;5085397;28;20074;-36
2022/12/11 01:18:04;;;;;;;55.15;21.05;;;-0.10;99.90;;;;;;5084994;28;20036;-36
2022/12/11 01:20:30;;;;;;;63.90;22.17;;;-0.10;99.90;;;;;;5093993;27;20057;-36
2022/12/11 01:22:59;;;;;;;56.75;22.02;;;-0.10;99.90;;;;;;5090271;28;20072;-36
2022/12/11 01:25:28;;;;;;;63.13;22.40;;;-0.10;99.90;;;;;;5099146;27;20123;-36
2022/12/11 01:27:55;;;;;;;59.95;21.90;;;-0.10;99.90;;;;;;5093054;28;20035;-36
2022/12/11 01:30:23;;;;;;;68.97;22.83;;;-0.10;99.90;;;;;;5093842;27;20388;-37
2022/12/11 01:32:49;;;;;;;66.18;23.67;;;-0.10;99.90;;;;;;5095939;28;20040;-36
2022/12/11 01:35:15;;;;;;;70.80;23.13;;;0.00;99.90;;;;;;5089825;28;20050;-36
2022/12/11 01:37:41;;;;;;;61.00;22.98;;;0.00;99.90;;;;;;5089846;27;20114;-36
2022/12/11 01:40:08;;;;;;;67.72;23.83;;;0.00;99.90;;;;;;5092823;28;20038;-35
2022/12/11 01:42:34;;;;;;;62.95;25.00;;;-0.10;99.90;;;;;;5097624;27;20039;-35
2022/12/11 01:45:30;;;;;;;60.20;20.80;;;0.00;99.90;;;;;;5085365;28;20035;-36
2022/12/11 01:48:01;;;;;;;55.28;20.95;;;0.00;99.90;;;;;;5096213;27;20050;-35
2022/12/11 01:50:30;;;;;;;57.58;21.08;;;0.00;99.90;;;;;;5096834;27;20075;-36
2022/12/11 01:52:56;;;;;;;52.25;21.77;;;0.00;99.90;;;;;;5106943;27;20127;-36
2022/12/11 01:55:22;;;;;;;57.75;20.38;;;0.00;99.90;;;;;;5092663;27;20051;-36
2022/12/11 01:57:49;;;;;;;54.53;20.92;;;0.00;99.90;;;;;;5096070;27;20066;-35
2022/12/11 02:00:15;;;;;;;55.47;20.85;;;0.00;99.90;;;;;;5088819;28;20032;-36
2022/12/11 02:02:41;;;;;;;55.83;21.48;;;0.10;99.90;;;;;;5090755;28;20031;-36
2022/12/11 02:05:08;;;;;;;58.92;22.05;;;0.00;99.90;;;;;;5101470;28;20446;-36
2022/12/11 02:07:45;;;;;;;60.00;21.17;;;0.00;99.90;;;;;;5090197;28;20400;-36
2022/12/11 02:10:11;;;;;;;60.55;21.25;;;0.00;99.90;;;;;;5092580;28;20427;-36
2022/12/11 02:13:04;;;;;;;51.97;20.10;;;0.10;99.90;;;;;;5101151;28;20418;-36
2022/12/11 02:15:41;;;;;;;58.45;21.27;;;0.00;99.90;;;;;;5072755;27;20089;-36
2022/12/11 02:18:29;;;;;;;44.17;18.77;;;0.00;99.90;;;;;;5092712;28;20441;-35
2022/12/11 02:21:10;;;;;;;54.67;22.00;;;0.00;99.90;;;;;;5092078;28;20177;-36
2022/12/11 02:23:52;;;;;;;59.78;22.83;;;0.10;99.90;;;;;;5090849;28;20050;-36
2022/12/11 02:26:32;;;;;;;59.15;21.58;;;0.10;99.90;;;;;;5084503;28;20400;-35
2022/12/11 02:29:05;;;;;;;56.22;21.90;;;0.10;99.90;;;;;;5083488;28;20036;-36
2022/12/11 02:31:43;;;;;;;60.15;22.05;;;0.10;99.90;;;;;;5090585;28;20047;-36
2022/12/11 02:34:33;;;;;;;70.82;23.13;;;0.10;99.90;;;;;;5100548;28;20543;-36
2022/12/11 02:37:04;;;;;;;60.97;22.15;;;0.10;99.90;;;;;;5096607;28;20441;-36
2022/12/11 02:39:32;;;;;;;58.92;22.98;;;0.10;99.90;;;;;;5086296;28;20059;-36
2022/12/11 02:41:59;;;;;;;67.35;23.92;;;0.10;99.90;;;;;;5096536;28;20036;-36
2022/12/11 02:44:29;;;;;;;64.82;22.17;;;0.10;99.90;;;;;;5086513;28;20191;-36
2022/12/11 02:46:57;;;;;;;56.45;20.75;;;0.10;99.90;;;;;;5085242;28;20077;-36
2022/12/11 02:49:25;;;;;;;65.57;24.02;;;0.10;99.90;;;;;;5093716;28;20119;-35
2022/12/11 02:51:52;;;;;;;62.42;22.17;;;0.10;99.90;;;;;;5084880;28;20043;-35
2022/12/11 02:54:30;;;;;;;62.17;20.77;;;0.10;99.90;;;;;;5100329;28;20513;-36
2022/12/11 02:57:03;;;;;;;56.58;22.05;;;0.20;99.90;;;;;;5083776;28;20118;-36
2022/12/11 02:59:34;;;;;;;62.30;23.30;;;0.10;99.90;;;;;;5097205;28;20175;-36
2022/12/11 03:02:01;;;;;;;65.25;22.77;;;0.10;99.90;;;;;;5111397;28;20175;-36
2022/12/11 03:04:28;;;;;;;67.80;22.35;;;0.20;99.90;;;;;;5082410;28;20044;-36
2022/12/11 03:06:58;;;;;;;65.20;22.15;;;0.20;99.90;;;;;;5089181;28;20050;-36
2022/12/11 03:09:26;;;;;;;66.57;23.15;;;0.20;99.90;;;;;;5108531;28;20035;-36
2022/12/11 03:11:51;;;;;;;63.95;22.60;;;0.20;99.90;;;;;;5091724;28;20046;-36
2022/12/11 03:14:17;;;;;;;71.07;24.10;;;0.20;99.90;;;;;;5092509;28;20044;-36
2022/12/11 03:16:57;;;;;;;66.82;22.88;;;0.20;99.90;;;;;;5092318;28;20028;-36
2022/12/11 03:19:51;;;;;;;66.10;22.92;;;0.20;99.90;;;;;;5097647;28;20081;-37
2022/12/11 03:22:59;;;;;;;63.67;21.38;;;0.20;99.90;;;;;;5095464;28;20072;-36
2022/12/11 03:25:42;;;;;;;66.60;24.27;;;0.20;99.90;;;;;;5067576;27;20576;-37
2022/12/11 03:28:15;;;;;;;81.47;24.92;;;0.20;99.90;;;;;;5092361;28;20094;-36
2022/12/11 03:30:42;;;;;;;66.28;23.45;;;0.20;99.90;;;;;;5095643;28;20100;-37
2022/12/11 03:33:14;;;;;;;61.90;23.15;;;0.20;99.90;;;;;;5096165;28;20077;-37
2022/12/11 03:35:46;;;;;;;72.00;24.55;;;0.20;99.90;;;;;;5102799;27;20110;-36
2022/12/11 03:38:22;;;;;;;64.78;23.38;;;0.20;99.90;;;;;;5096040;28;20035;-37
2022/12/11 03:40:52;;;;;;;59.72;21.98;;;0.20;99.90;;;;;;5095949;28;20040;-37
2022/12/11 03:43:20;;;;;;;68.70;23.80;;;0.20;99.90;;;;;;5109369;28;20066;-36
2022/12/11 03:45:49;;;;;;;69.85;23.63;;;0.20;99.90;;;;;;5098329;28;20035;-37
2022/12/11 03:48:15;;;;;;;72.60;24.52;;;0.20;99.90;;;;;;5093624;28;20405;-37
2022/12/11 03:50:42;;;;;;;68.15;24.00;;;0.20;99.90;;;;;;5096676;28;20069;-37
2022/12/11 03:53:09;;;;;;;75.15;25.25;;;0.20;99.90;;;;;;5095600;28;20035;-37
2022/12/11 03:55:36;;;;;;;70.60;24.13;;;0.20;99.90;;;;;;5095819;28;20043;-37
2022/12/11 03:58:02;;;;;;;71.97;23.52;;;0.20;99.90;;;;;;5091771;28;20036;-37
2022/12/11 04:00:31;;;;;;;77.97;24.65;;;0.30;99.90;;;;;;5097274;27;20031;-36
2022/12/11 04:03:12;;;;;;;77.30;24.88;;;0.20;99.90;;;;;;5098094;28;20046;-36
2022/12/11 04:05:43;;;;;;;72.65;24.63;;;0.30;99.90;;;;;;5100067;27;20031;-37
2022/12/11 04:08:09;;;;;;;77.63;25.75;;;0.20;99.90;;;;;;5104684;28;20111;-37
2022/12/11 04:10:35;;;;;;;85.70;27.15;;;0.30;99.90;;;;;;5103353;28;20481;-37
2022/12/11 04:13:01;;;;;;;92.10;27.98;;;0.20;99.90;;;;;;5099303;28;20074;-37
2022/12/11 04:15:27;;;;;;;86.05;26.58;;;0.20;99.90;;;;;;5093197;28;20036;-37
2022/12/11 04:26:07;;;;;;;71.30;23.95;;;0.30;99.90;;;;;;5123663;27;20694;-37
2022/12/11 04:28:34;;;;;;;74.32;25.67;;;0.20;99.90;;;;;;5118911;27;20126;-37
2022/12/11 04:31:00;;;;;;;74.13;25.20;;;0.30;99.90;;;;;;5114474;28;20043;-37
2022/12/11 04:33:26;;;;;;;73.25;24.50;;;0.30;99.90;;;;;;5099529;27;20891;-37
2022/12/11 04:35:52;;;;;;;73.85;25.20;;;0.30;99.90;;;;;;5094596;28;20043;-37
2022/12/11 04:38:18;;;;;;;74.78;24.02;;;0.30;99.90;;;;;;5095567;27;20066;-37
2022/12/11 04:40:44;;;;;;;74.55;24.90;;;0.30;99.90;;;;;;5098673;27;20118;-36
2022/12/11 04:43:09;;;;;;;71.20;23.48;;;0.30;99.90;;;;;;5098542;28;20042;-36
2022/12/11 04:45:35;;;;;;;76.13;25.52;;;0.30;99.90;;;;;;5100069;28;20116;-37
2022/12/11 04:48:01;;;;;;;75.93;25.55;;;0.30;99.90;;;;;;5088011;28;20035;-37
2022/12/11 04:50:27;;;;;;;70.50;23.13;;;0.40;99.90;;;;;;5096095;28;20054;-37
2022/12/11 04:52:56;;;;;;;65.75;23.17;;;0.40;99.90;;;;;;5086139;28;20050;-37
2022/12/11 04:55:23;;;;;;;64.38;23.15;;;0.30;99.90;;;;;;5100140;28;20050;-37
2022/12/11 04:57:48;;;;;;;71.13;24.02;;;0.30;99.90;;;;;;5105566;28;20028;-37
2022/12/11 05:00:16;;;;;;;68.85;21.88;;;0.40;99.90;;;;;;5098633;28;20076;-37
2022/12/11 05:02:42;;;;;;;69.03;22.52;;;0.40;99.90;;;;;;5092705;28;20123;-37
2022/12/11 05:05:09;;;;;;;63.28;22.83;;;0.40;99.90;;;;;;5094209;28;20063;-37
2022/12/11 05:07:36;;;;;;;60.08;22.08;;;0.40;99.90;;;;;;5109539;27;20039;-36
2022/12/11 05:10:03;;;;;;;52.13;20.88;;;0.40;99.90;;;;;;5094514;28;20390;-37
2022/12/11 05:12:31;;;;;;;60.22;21.23;;;0.40;99.90;;;;;;5081977;28;20043;-37
2022/12/11 05:14:56;;;;;;;49.15;19.67;;;0.40;99.90;;;;;;5109190;28;20416;-37
2022/12/11 05:17:22;;;;;;;60.80;22.20;;;0.40;99.90;;;;;;5100273;28;20034;-37
2022/12/11 05:19:50;;;;;;;59.97;21.08;;;0.40;99.90;;;;;;5086567;28;20035;-37
2022/12/11 05:22:16;;;;;;;59.72;21.83;;;0.40;99.90;;;;;;5101901;28;20032;-37
2022/12/11 05:24:43;;;;;;;61.17;21.88;;;0.40;99.90;;;;;;5096416;28;20042;-37
2022/12/11 05:27:09;;;;;;;61.70;21.42;;;0.40;99.90;;;;;;5092995;28;20054;-37
2022/12/11 05:29:36;;;;;;;62.30;21.63;;;0.40;99.90;;;;;;5080769;28;20077;-37
2022/12/11 05:32:18;;;;;;;67.47;23.02;;;0.40;99.90;;;;;;5077383;28;20051;-37
2022/12/11 05:34:45;;;;;;;57.42;22.02;;;0.40;99.90;;;;;;5093166;27;20043;-36
2022/12/11 05:37:11;;;;;;;62.65;23.17;;;0.40;99.90;;;;;;5080366;28;20502;-37
2022/12/11 05:39:37;;;;;;;68.97;22.73;;;0.40;99.90;;;;;;5116987;27;20084;-37
2022/12/11 05:42:03;;;;;;;60.70;23.50;;;0.40;99.90;;;;;;5118304;27;20036;-37
2022/12/11 05:44:29;;;;;;;61.17;22.52;;;0.40;99.90;;;;;;5113350;27;20050;-36
2022/12/11 05:46:55;;;;;;;67.15;23.00;;;0.50;99.90;;;;;;5092409;28;20043;-37
2022/12/11 05:49:21;;;;;;;62.70;22.85;;;0.40;99.90;;;;;;5088142;27;20043;-36
2022/12/11 05:51:47;;;;;;;59.75;21.60;;;0.50;99.90;;;;;;5106990;28;20054;-37
2022/12/11 05:54:13;;;;;;;67.53;22.23;;;0.50;99.90;;;;;;5091280;28;20489;-37
2022/12/11 05:56:39;;;;;;;62.83;21.92;;;0.40;99.90;;;;;;5095943;28;20492;-37
2022/12/11 05:59:06;;;;;;;59.67;21.65;;;0.40;99.90;;;;;;5093245;28;20070;-36
2022/12/11 06:01:33;;;;;;;59.03;20.35;;;0.40;99.90;;;;;;5115954;27;20057;-36
2022/12/11 06:03:59;;;;;;;56.67;19.35;;;0.40;99.90;;;;;;5093495;28;20043;-37
2022/12/11 06:06:26;;;;;;;45.13;19.05;;;0.40;99.90;;;;;;5082122;28;20083;-36
2022/12/11 06:08:53;;;;;;;56.00;21.05;;;0.50;99.90;;;;;;5086493;28;20377;-37
2022/12/11 06:11:20;;;;;;;55.13;19.65;;;0.40;99.90;;;;;;5090049;28;20047;-36
2022/12/11 06:13:46;;;;;;;58.90;21.48;;;0.50;99.90;;;;;;5095164;28;20083;-37
2022/12/11 06:16:13;;;;;;;55.58;20.10;;;0.50;99.90;;;;;;5086136;28;20031;-37
2022/12/11 06:18:41;;;;;;;50.03;19.25;;;0.40;99.90;;;;;;5077042;28;20046;-36
2022/12/11 06:21:22;;;;;;;58.17;21.10;;;0.50;99.90;;;;;;5078574;28;20042;-36
2022/12/11 06:23:50;;;;;;;51.08;19.52;;;0.50;99.90;;;;;;5074869;28;20100;-37
2022/12/11 06:26:17;;;;;;;53.92;19.08;;;0.50;99.90;;;;;;5089002;28;20118;-36
2022/12/11 06:28:44;;;;;;;49.17;19.00;;;0.40;99.90;;;;;;5089671;28;20031;-36
2022/12/11 06:31:10;;;;;;;54.10;19.67;;;0.50;99.90;;;;;;5102188;28;20031;-37
2022/12/11 06:33:36;;;;;;;58.08;19.15;;;0.50;99.90;;;;;;5111370;28;20039;-36
2022/12/11 06:36:08;;;;;;;53.70;21.17;;;0.40;99.90;;;;;;5102268;28;20043;-36
2022/12/11 06:38:34;;;;;;;55.47;20.23;;;0.40;99.90;;;;;;5106361;28;20158;-36
2022/12/11 06:41:03;;;;;;;53.72;20.58;;;0.40;99.90;;;;;;5092309;28;20043;-37
2022/12/11 06:43:34;;;;;;;54.28;20.85;;;0.50;99.90;;;;;;5093250;28;20046;-37
2022/12/11 06:46:19;;;;;;;56.28;20.45;;;0.40;99.90;;;;;;5081767;28;20097;-36
2022/12/11 06:48:45;;;;;;;47.78;18.75;;;0.50;99.90;;;;;;5089867;28;20039;-36
2022/12/11 06:51:20;;;;;;;59.45;20.35;;;0.50;99.90;;;;;;5095656;28;20055;-36
2022/12/11 06:53:53;;;;;;;62.53;21.80;;;0.40;99.90;;;;;;5095361;28;20447;-37
2022/12/11 06:56:20;;;;;;;48.50;19.13;;;0.40;99.90;;;;;;5095810;27;20316;-37
2022/12/11 06:58:46;;;;;;;58.58;20.75;;;0.40;99.90;;;;;;5100171;27;20055;-37
2022/12/11 07:01:23;;;;;;;50.90;20.83;;;0.50;99.90;;;;;;5088790;27;20039;-36
2022/12/11 07:03:53;;;;;;;73.18;27.38;;;0.40;99.90;;;;;;5099468;28;20099;-36
2022/12/11 07:06:18;;;;;;;60.13;22.63;;;0.40;99.90;;;;;;5102752;28;20040;-34
2022/12/11 07:08:44;;;;;;;47.90;19.00;;;0.40;99.90;;;;;;5096027;28;20047;-34
2022/12/11 07:11:13;;;;;;;54.80;20.55;;;0.40;99.90;;;;;;5108180;28;20108;-34
2022/12/11 07:13:42;;;;;;;57.92;20.60;;;0.50;99.90;;;;;;5101725;28;20111;-34
2022/12/11 07:16:10;;;;;;;59.70;22.83;;;0.40;99.90;;;;;;5100798;28;20387;-35
2022/12/11 07:18:42;;;;;;;56.40;21.75;;;0.40;99.90;;;;;;5108684;28;20392;-35
2022/12/11 07:21:10;;;;;;;55.40;20.88;;;0.40;99.90;;;;;;5100282;28;20489;-34
2022/12/11 07:23:36;;;;;;;56.42;20.58;;;0.40;99.90;;;;;;5111377;27;20039;-35
2022/12/11 07:26:08;;;;;;;64.63;21.38;;;0.50;99.90;;;;;;5106401;28;20071;-35
2022/12/11 07:28:34;;;;;;;48.95;19.55;;;0.50;99.90;;;;;;5098929;28;20157;-35
2022/12/11 07:31:09;;;;;;;58.72;21.45;;;0.50;99.90;;;;;;5096574;28;20082;-34
2022/12/11 07:33:35;;;;;;;55.00;19.58;;;0.50;99.90;;;;;;5098232;28;20473;-34
2022/12/11 07:36:06;;;;;;;53.75;21.55;;;0.40;99.90;;;;;;5099651;28;20119;-35
2022/12/11 07:38:32;;;;;;;61.20;20.60;;;0.50;99.90;;;;;;5088033;28;20541;-35
2022/12/11 07:41:03;;;;;;;60.13;22.08;;;0.50;99.90;;;;;;5091734;28;20036;-34
2022/12/11 07:43:29;;;;;;;53.55;18.98;;;0.50;99.90;;;;;;5099941;28;20039;-34
2022/12/11 07:45:59;;;;;;;53.47;20.83;;;0.50;99.90;;;;;;5097725;28;20040;-35
2022/12/11 07:48:25;;;;;;;47.22;19.52;;;0.50;99.90;;;;;;5098118;28;20051;-35
2022/12/11 07:50:50;;;;;;;57.58;21.80;;;0.50;99.90;;;;;;5077492;28;20031;-34
2022/12/11 07:53:16;;;;;;;51.53;18.77;;;0.50;99.90;;;;;;5097638;28;20097;-34
2022/12/11 07:55:42;;;;;;;54.40;19.67;;;0.60;99.90;;;;;;5098416;28;20413;-35
2022/12/11 07:58:08;;;;;;;61.30;20.58;;;0.50;99.90;;;;;;5097311;28;20028;-34
2022/12/11 08:00:33;;;;;;;59.88;21.33;;;0.50;99.90;;;;;;5098979;28;20400;-35
2022/12/11 08:02:59;;;;;;;52.35;19.73;;;0.50;99.90;;;;;;5090727;28;20093;-34
2022/12/11 08:05:26;;;;;;;58.88;20.50;;;0.50;99.90;;;;;;5089285;28;20496;-37
2022/12/11 08:07:52;;;;;;;61.10;21.52;;;0.50;99.90;;;;;;5082944;28;20123;-33
2022/12/11 08:10:18;;;;;;;54.65;20.13;;;0.50;99.90;;;;;;5075476;28;20077;-34
2022/12/11 08:12:43;;;;;;;61.60;21.10;;;0.50;99.90;;;;;;5084120;28;20127;-34
2022/12/11 08:15:10;;;;;;;58.13;20.20;;;0.50;99.90;;;;;;5084311;28;20118;-35
2022/12/11 08:17:36;;;;;;;60.40;22.15;;;0.50;99.90;;;;;;5096294;28;20031;-35
2022/12/11 08:20:02;;;;;;;57.72;21.10;;;0.50;99.90;;;;;;5099230;28;20044;-35
2022/12/11 08:22:28;;;;;;;58.50;22.20;;;0.50;99.90;;;;;;5090433;28;20561;-34
2022/12/11 08:24:54;;;;;;;65.65;22.33;;;0.50;99.90;;;;;;5084748;28;20047;-35
2022/12/11 08:27:20;;;;;;;64.22;22.15;;;0.50;99.90;;;;;;5102641;28;20484;-34
2022/12/11 08:29:46;;;;;;;66.72;25.90;;;0.50;99.90;;;;;;5094893;28;20043;-34
2022/12/11 08:32:12;;;;;;;59.83;23.55;;;0.50;99.90;;;;;;5092078;28;20483;-35
2022/12/11 08:34:39;;;;;;;62.67;23.05;;;0.50;99.90;;;;;;5092414;28;20036;-34
2022/12/11 08:37:05;;;;;;;62.83;25.15;;;0.50;99.90;;;;;;5091639;28;20031;-34
2022/12/11 08:39:30;;;;;;;69.07;26.08;;;0.50;99.90;;;;;;5096492;28;20035;-35
2022/12/11 08:41:56;;;;;;;73.85;26.45;;;0.50;99.90;;;;;;5097180;28;20043;-34
2022/12/11 08:44:23;;;;;;;64.40;23.60;;;0.50;99.90;;;;;;5085324;27;20050;-35
2022/12/11 08:46:49;;;;;;;68.15;25.08;;;0.50;99.90;;;;;;5088512;28;20113;-34
2022/12/11 08:49:15;;;;;;;63.10;24.48;;;0.50;99.90;;;;;;5102026;27;20075;-34
2022/12/11 08:51:41;;;;;;;66.55;25.05;;;0.60;99.90;;;;;;5078181;28;20070;-34
2022/12/11 08:54:08;;;;;;;69.03;24.77;;;0.60;99.90;;;;;;5095033;28;20378;-35
2022/12/11 08:56:34;;;;;;;66.57;24.30;;;0.60;99.90;;;;;;5084590;28;20138;-36
2022/12/11 08:59:00;;;;;;;65.78;26.65;;;0.60;99.90;;;;;;5091639;28;20485;-35
2022/12/11 09:01:27;;;;;;;63.03;26.42;;;0.60;99.90;;;;;;5105700;27;20046;-35
2022/12/11 09:03:55;;;;;;;67.05;26.73;;;0.60;99.90;;;;;;5102405;27;20099;-35
2022/12/11 09:06:24;;;;;;;64.50;22.60;;;0.60;99.90;;;;;;5098353;28;20039;-35
2022/12/11 09:08:51;;;;;;;67.50;24.02;;;0.60;99.90;;;;;;5100752;27;20449;-35
2022/12/11 09:11:21;;;;;;;55.28;21.52;;;0.60;99.90;;;;;;5093609;27;20035;-35
2022/12/11 09:13:47;;;;;;;60.80;21.92;;;0.70;99.90;;;;;;5097026;28;20046;-35
2022/12/11 09:16:15;;;;;;;60.95;22.67;;;0.70;99.90;;;;;;5098264;28;20546;-35
2022/12/11 09:18:41;;;;;;;59.10;22.05;;;0.70;99.90;;;;;;5098027;28;20107;-35
2022/12/11 09:21:12;;;;;;;64.20;23.88;;;0.70;99.90;;;;;;5098029;28;20382;-35
2022/12/11 09:23:39;;;;;;;60.30;24.52;;;0.70;99.90;;;;;;5098395;28;20036;-35
2022/12/11 09:26:11;;;;;;;61.50;23.42;;;0.70;99.90;;;;;;5081098;28;20404;-35
2022/12/11 09:28:39;;;;;;;60.60;23.48;;;0.70;99.90;;;;;;5101166;28;20055;-35
2022/12/11 09:31:26;;;;;;;61.88;23.58;;;0.80;99.90;;;;;;5096247;28;20046;-35
2022/12/11 09:33:55;;;;;;;61.38;24.27;;;0.80;99.90;;;;;;5108071;28;20046;-36
2022/12/11 09:36:22;;;;;;;61.17;22.63;;;0.70;99.90;;;;;;5101316;28;20036;-35
2022/12/11 09:38:48;;;;;;;63.70;22.48;;;0.80;99.90;;;;;;5098116;28;20031;-34
2022/12/11 09:41:20;;;;;;;54.38;21.58;;;0.80;99.90;;;;;;5091341;28;20047;-35
2022/12/11 09:43:49;;;;;;;52.83;20.73;;;0.80;99.90;;;;;;5120425;27;20088;-34
2022/12/11 09:46:16;;;;;;;54.22;21.20;;;0.80;99.90;;;;;;5100220;28;20548;-35
2022/12/11 09:48:45;;;;;;;63.40;22.40;;;0.80;99.90;;;;;;5080114;28;20059;-34
2022/12/11 09:51:35;;;;;;;61.50;22.65;;;0.80;99.90;;;;;;5090055;28;20073;-34
2022/12/11 09:54:03;;;;;;;52.30;21.48;;;0.80;99.90;;;;;;5077331;28;20043;-35
2022/12/11 09:56:38;;;;;;;65.65;22.52;;;0.80;99.90;;;;;;5090735;28;20043;-34
2022/12/11 09:59:34;;;;;;;54.65;21.35;;;0.80;99.90;;;;;;5080392;28;20366;-34
2022/12/11 10:02:39;;;;;;;56.45;20.48;;;0.80;99.90;;;;;;5082606;28;20123;-34
2022/12/11 10:05:34;;;;;;;53.22;20.05;;;0.80;99.90;;;;;;5092382;28;20035;-34
2022/12/11 10:08:12;;;;;;;56.25;20.52;;;0.90;99.90;;;;;;5091382;28;20121;-35
2022/12/11 10:10:47;;;;;;;52.83;20.70;;;0.90;99.90;;;;;;5089327;27;20038;-34
2022/12/11 10:13:34;;;;;;;48.92;20.75;;;0.90;99.90;;;;;;5098185;28;20063;-34
2022/12/11 10:16:36;;;;;;;52.00;21.05;;;0.90;99.90;;;;;;5093707;28;20036;-35
2022/12/11 10:19:02;;;;;;;48.55;19.58;;;0.90;99.90;;;;;;5087862;28;20036;-34
2022/12/11 10:21:37;;;;;;;45.53;19.48;;;0.90;99.90;;;;;;5086492;28;20036;-35
2022/12/11 10:24:09;;;;;;;55.83;19.65;;;0.90;99.90;;;;;;5108421;28;20039;-35
2022/12/11 10:26:38;;;;;;;42.47;18.60;;;0.90;99.90;;;;;;5072079;28;20063;-35
2022/12/11 10:29:11;;;;;;;48.55;19.88;;;0.90;99.90;;;;;;5097125;28;20115;-35
2022/12/11 10:31:50;;;;;;;43.57;20.07;;;0.90;99.90;;;;;;5113199;28;20035;-35
2022/12/11 10:34:38;;;;;;;47.40;19.67;;;0.90;99.90;;;;;;5091904;28;20282;-34
2022/12/11 10:37:06;;;;;;;51.22;20.90;;;0.90;99.90;;;;;;5088229;28;20028;-35
2022/12/11 10:39:33;;;;;;;49.28;21.35;;;0.90;99.90;;;;;;5094496;28;20392;-35
2022/12/11 10:41:58;;;;;;;56.85;20.38;;;0.90;99.90;;;;;;5095045;28;20032;-34
2022/12/11 10:44:28;;;;;;;53.38;20.00;;;0.90;99.90;;;;;;5094090;28;20043;-35
2022/12/11 10:47:20;;;;;;;52.38;21.17;;;0.90;99.90;;;;;;5099535;28;20036;-35
2022/12/11 10:50:00;;;;;;;58.28;24.45;;;0.90;99.90;;;;;;5088887;28;20044;-34
2022/12/11 10:52:39;;;;;;;53.17;21.70;;;0.90;99.90;;;;;;5085175;28;20043;-35
2022/12/11 10:55:23;;;;;;;46.47;20.00;;;0.90;99.90;;;;;;5075758;28;20040;-34
2022/12/11 10:58:02;;;;;;;48.75;20.33;;;0.90;99.90;;;;;;5093398;28;20036;-34
2022/12/11 11:00:39;;;;;;;48.33;19.70;;;0.90;99.90;;;;;;5083489;28;20127;-34
2022/12/11 11:03:22;;;;;;;45.55;19.60;;;0.90;99.90;;;;;;5089049;28;20504;-35
2022/12/11 11:05:49;;;;;;;51.47;21.75;;;0.90;99.90;;;;;;5110362;28;20111;-34
2022/12/11 11:08:20;;;;;;;51.55;19.70;;;0.90;99.90;;;;;;5109588;28;20392;-35
2022/12/11 11:10:50;;;;;;;50.47;19.67;;;0.90;99.90;;;;;;5098517;28;20039;-35
2022/12/11 11:13:16;;;;;;;47.50;19.48;;;0.90;99.90;;;;;;5083809;28;20051;-34
2022/12/11 11:15:42;;;;;;;46.60;19.20;;;0.90;99.90;;;;;;5108618;28;20477;-36
2022/12/11 11:18:25;;;;;;;54.00;20.80;;;0.90;99.90;;;;;;5077943;28;20392;-34
2022/12/11 11:20:51;;;;;;;49.72;20.50;;;0.90;99.90;;;;;;5102599;28;20027;-34
2022/12/11 11:23:20;;;;;;;49.08;20.85;;;0.90;99.90;;;;;;5093525;28;20404;-37
2022/12/11 11:25:59;;;;;;;51.90;20.17;;;1.00;99.90;;;;;;5068504;28;20032;-35
2022/12/11 11:28:40;;;;;;;44.80;19.00;;;1.00;99.90;;;;;;5089430;28;20035;-33
2022/12/11 11:31:12;;;;;;;51.03;19.92;;;1.00;99.90;;;;;;5090735;28;20097;-35
2022/12/11 11:34:05;;;;;;;46.47;19.92;;;1.00;99.90;;;;;;5087984;28;20039;-34
2022/12/11 11:36:34;;;;;;;47.63;19.73;;;1.00;99.90;;;;;;5111657;28;20084;-35
2022/12/11 11:39:14;;;;;;;46.85;19.50;;;1.00;99.90;;;;;;5115993;28;20130;-34
2022/12/11 11:41:50;;;;;;;59.70;25.17;;;1.10;99.90;;;;;;5092006;28;20039;-35
2022/12/11 11:44:24;;;;;;;56.58;25.60;;;1.10;99.90;;;;;;5097514;28;20065;-35
2022/12/11 11:47:08;;;;;;;54.80;23.45;;;1.00;99.90;;;;;;5090924;28;20114;-35
2022/12/11 11:49:48;;;;;;;50.88;20.23;;;1.00;99.90;;;;;;5100517;28;20508;-35
2022/12/11 11:52:46;;;;;;;47.38;19.30;;;1.10;99.90;;;;;;5080429;28;20404;-35
2022/12/11 11:55:54;;;;;;;52.03;22.23;;;1.10;99.90;;;;;;5076817;28;20040;-36
2022/12/11 11:58:27;;;;;;;48.90;21.65;;;1.10;99.90;;;;;;5111790;28;20043;-36
2022/12/11 12:00:56;;;;;;;53.00;22.70;;;1.20;99.90;;;;;;5096991;28;20035;-35
2022/12/11 12:03:24;;;;;;;56.05;25.42;;;1.20;99.90;;;;;;5078037;28;20139;-35
2022/12/11 12:06:32;;;;;;;56.95;25.20;;;1.20;99.90;;;;;;5079025;28;20043;-34
2022/12/11 12:09:23;;;;;;;51.95;23.10;;;1.20;99.90;;;;;;4994617;28;20049;-34
2022/12/11 12:12:20;;;;;;;49.17;21.20;;;1.20;99.90;;;;;;5109695;28;20086;-35
2022/12/11 12:15:13;;;;;;;58.25;24.63;;;1.20;99.90;;;;;;5091856;28;20047;-38
2022/12/11 12:18:00;;;;;;;56.47;23.23;;;1.20;99.90;;;;;;5092452;28;20089;-37
2022/12/11 12:20:42;;;;;;;52.08;22.52;;;1.20;99.90;;;;;;5067834;28;20040;-36
2022/12/11 12:23:36;;;;;;;49.10;21.80;;;1.20;99.90;;;;;;5095134;27;20089;-37
2022/12/11 12:26:03;;;;;;;56.33;23.92;;;1.20;99.90;;;;;;5091902;28;20043;-37
2022/12/11 12:28:47;;;;;;;57.55;21.33;;;1.20;99.90;;;;;;5100043;27;20040;-37
2022/12/11 12:31:31;;;;;;;50.40;21.55;;;1.20;99.90;;;;;;5090725;27;20046;-37
2022/12/11 12:34:18;;;;;;;50.03;21.83;;;1.20;99.90;;;;;;5090780;28;20085;-36
2022/12/11 12:36:50;;;;;;;55.67;21.63;;;1.20;99.90;;;;;;5088258;27;20054;-36
2022/12/11 12:39:40;;;;;;;52.97;22.63;;;1.20;99.90;;;;;;5064324;28;20066;-35
2022/12/11 12:42:12;;;;;;;58.60;24.08;;;1.20;99.90;;;;;;5081091;28;20469;-36
2022/12/11 12:45:45;;;;;;;;;;;;;;;;;;;;;
2022/12/11 12:48:38;;;;;;;50.08;21.65;;;1.20;99.90;;;;;;5100158;27;20039;-34
2022/12/11 12:51:36;;;;;;;53.45;21.63;;;1.20;99.90;;;;;;5083853;28;20120;-35
2022/12/11 12:54:27;;;;;;;54.65;22.00;;;1.20;99.90;;;;;;5071330;28;20032;-35
2022/12/11 12:56:54;;;;;;;51.22;21.50;;;1.20;99.90;;;;;;5099163;28;20063;-35
2022/12/11 12:59:26;;;;;;;52.45;22.30;;;1.30;99.90;;;;;;5098457;28;20061;-36
2022/12/11 13:02:01;;;;;;;56.95;22.20;;;1.20;99.90;;;;;;5116585;28;20039;-36
2022/12/11 13:04:54;;;;;;;52.20;21.92;;;1.20;99.90;;;;;;5098773;28;20544;-34
2022/12/11 13:07:26;;;;;;;53.22;21.38;;;1.20;99.90;;;;;;5112456;28;20039;-33